createdAt,value
2022-08-09T00:00:00.459Z,66.80
2022-08-09T00:02:29.180Z,67.20
2022-08-09T00:05:03.466Z,67.06
2022-08-09T00:07:46.434Z,67.34
2022-08-09T00:10:17.986Z,67.19
2022-08-09T00:12:52.709Z,67.29
2022-08-09T00:15:26.557Z,67.62
2022-08-09T00:18:12.538Z,67.44
2022-08-09T00:20:49.687Z,67.66
2022-08-09T00:23:55.531Z,67.46
2022-08-09T00:26:07.699Z,67.91
2022-08-09T00:28:35.759Z,67.65
2022-08-09T00:31:09.139Z,68.02
2022-08-09T00:33:53.271Z,68.14
2022-08-09T00:36:22.514Z,68.23
2022-08-09T00:38:57.097Z,68.38
2022-08-09T00:44:16.565Z,68.24
2022-08-09T00:44:25.463Z,68.35
2022-08-09T00:46:57.690Z,68.35
2022-08-09T00:49:36.953Z,68.34
2022-08-09T00:52:15.946Z,68.54
2022-08-09T00:54:49.778Z,68.45
2022-08-09T00:57:33.594Z,68.18
2022-08-09T01:00:20.592Z,68.40
2022-08-09T01:03:03.643Z,68.74
2022-08-09T01:05:55.876Z,68.68
2022-08-09T01:08:55.780Z,68.24
2022-08-09T01:12:08.380Z,68.48
2022-08-09T01:14:41.728Z,69.26
2022-08-09T01:17:21.702Z,68.96
2022-08-09T01:20:03.691Z,69.30
2022-08-09T01:22:52.105Z,69.13
2022-08-09T01:25:37.442Z,69.42
2022-08-09T01:28:10.488Z,69.14
2022-08-09T01:30:52.426Z,69.28
2022-08-09T01:33:22.927Z,69.16
2022-08-09T01:36:07.340Z,68.81
2022-08-09T01:38:39.972Z,69.14
2022-08-09T01:41:26.015Z,69.51
2022-08-09T01:44:01.250Z,69.23
2022-08-09T01:46:31.732Z,69.24
2022-08-09T01:49:10.092Z,69.28
2022-08-09T01:52:07.060Z,69.63
2022-08-09T01:54:40.211Z,69.58
2022-08-09T01:57:17.819Z,69.14
2022-08-09T01:59:52.334Z,69.60
2022-08-09T02:02:30.807Z,69.67
2022-08-09T02:05:05.451Z,69.46
2022-08-09T02:08:39.641Z,69.12
2022-08-09T02:10:43.044Z,69.65
2022-08-09T02:13:25.861Z,69.73
2022-08-09T02:16:05.474Z,69.64
2022-08-09T02:18:34.154Z,70.19
2022-08-09T02:21:17.347Z,70.04
2022-08-09T02:23:58.227Z,69.69
2022-08-09T02:26:30.464Z,70.16
2022-08-09T02:29:07.203Z,69.59
2022-08-09T02:31:37.805Z,69.63
2022-08-09T02:34:25.718Z,69.75
2022-08-09T02:37:05.166Z,69.63
2022-08-09T02:39:45.423Z,70.12
2022-08-09T02:42:29.348Z,69.89
2022-08-09T02:45:02.812Z,69.98
2022-08-09T02:47:33.893Z,70.33
2022-08-09T02:50:26.913Z,70.32
2022-08-09T02:53:10.180Z,70.27
2022-08-09T02:55:58.558Z,70.45
2022-08-09T02:58:35.312Z,70.19
2022-08-09T03:01:11.043Z,70.30
2022-08-09T03:04:17.941Z,70.29
2022-08-09T03:06:27.339Z,70.14
2022-08-09T03:08:54.977Z,70.43
2022-08-09T03:11:29.742Z,70.15
2022-08-09T03:14:11.752Z,70.39
2022-08-09T03:16:44.836Z,70.89
2022-08-09T03:19:16.683Z,70.70
2022-08-09T03:22:00.569Z,70.58
2022-08-09T03:24:31.500Z,71.08
2022-08-09T03:27:21.510Z,70.67
2022-08-09T03:29:57.741Z,71.15
2022-08-09T03:32:31.306Z,71.27
2022-08-09T03:34:59.817Z,71.28
2022-08-09T03:37:56.492Z,70.60
2022-08-09T03:40:17.927Z,71.17
2022-08-09T03:42:46.686Z,71.01
2022-08-09T03:45:15.630Z,71.12
2022-08-09T03:47:46.832Z,71.01
2022-08-09T03:50:27.728Z,71.02
2022-08-09T03:52:58.443Z,71.05
2022-08-09T03:55:26.562Z,71.08
2022-08-09T03:58:03.385Z,71.31
2022-08-09T04:00:39.174Z,71.43
2022-08-09T04:03:07.735Z,71.76
2022-08-09T04:05:40.410Z,71.13
2022-08-09T04:08:07.991Z,71.89
2022-08-09T04:10:35.938Z,71.87
2022-08-09T04:13:11.515Z,71.75
2022-08-09T04:16:18.756Z,72.09
2022-08-09T04:18:27.027Z,72.08
2022-08-09T04:20:55.683Z,72.30
2022-08-09T04:23:24.979Z,71.89
2022-08-09T04:25:54.840Z,72.54
2022-08-09T04:28:34.053Z,72.15
2022-08-09T04:31:08.303Z,72.83
2022-08-09T04:33:51.953Z,72.81
2022-08-09T04:36:26.525Z,72.75
2022-08-09T04:38:55.502Z,72.70
2022-08-09T04:41:24.445Z,72.58
2022-08-09T04:44:06.971Z,72.65
2022-08-09T04:46:59.544Z,73.05
2022-08-09T04:49:54.702Z,73.28
2022-08-09T04:52:26.958Z,72.83
2022-08-09T04:54:56.923Z,73.03
2022-08-09T04:57:25.226Z,73.49
2022-08-09T04:59:55.916Z,73.15
2022-08-09T05:02:27.102Z,73.38
2022-08-09T05:04:55.256Z,73.55
2022-08-09T05:07:23.599Z,73.33
2022-08-09T05:09:51.838Z,73.49
2022-08-09T05:12:18.834Z,73.95
2022-08-09T05:14:50.326Z,73.93
2022-08-09T05:18:39.146Z,73.79
2022-08-09T05:20:06.389Z,73.84
2022-08-09T05:23:56.722Z,73.74
2022-08-09T05:25:21.982Z,73.97
2022-08-09T05:27:51.026Z,73.81
2022-08-09T05:30:19.425Z,73.96
2022-08-09T05:32:50.837Z,74.07
2022-08-09T05:35:21.829Z,74.25
2022-08-09T05:37:51.192Z,74.21
2022-08-09T05:40:18.763Z,74.24
2022-08-09T05:42:46.969Z,74.09
2022-08-09T05:45:14.600Z,74.59
2022-08-09T05:47:51.593Z,74.46
2022-08-09T05:50:39.865Z,74.47
2022-08-09T05:53:31.971Z,74.63
2022-08-09T05:56:01.522Z,74.80
2022-08-09T05:58:28.830Z,74.82
2022-08-09T06:00:55.825Z,74.93
2022-08-09T06:03:23.155Z,74.79
2022-08-09T06:06:02.719Z,75.33
2022-08-09T06:08:33.349Z,75.02
2022-08-09T06:11:01.025Z,75.69
2022-08-09T06:13:33.933Z,75.50
2022-08-09T06:16:04.905Z,75.20
2022-08-09T06:18:33.410Z,75.67
2022-08-09T06:21:01.135Z,75.53
2022-08-09T06:23:57.357Z,75.60
2022-08-09T06:26:28.482Z,75.53
2022-08-09T06:29:00.132Z,75.76
2022-08-09T06:31:39.862Z,75.42
2022-08-09T06:34:18.849Z,75.21
2022-08-09T06:36:46.544Z,75.81
2022-08-09T06:39:13.822Z,75.63
2022-08-09T06:42:09.184Z,75.48
2022-08-09T06:44:29.636Z,75.72
2022-08-09T06:46:56.728Z,75.56
2022-08-09T06:49:44.738Z,75.28
2022-08-09T06:52:15.866Z,75.25
2022-08-09T06:54:46.102Z,75.10
2022-08-09T06:57:14.842Z,75.01
2022-08-09T07:00:51.955Z,74.66
2022-08-09T07:02:31.700Z,73.93
2022-08-09T07:04:59.845Z,73.69
2022-08-09T07:08:00.670Z,73.10
2022-08-09T07:10:29.995Z,72.91
2022-08-09T07:12:59.546Z,72.40
2022-08-09T07:15:53.825Z,71.87
2022-08-09T07:18:17.363Z,71.70
2022-08-09T07:20:44.826Z,70.77
2022-08-09T07:23:19.426Z,70.61
2022-08-09T07:25:52.027Z,70.03
2022-08-09T07:28:26.384Z,69.84
2022-08-09T07:30:55.702Z,69.37
2022-08-09T07:33:23.112Z,68.69
2022-08-09T07:35:54.080Z,68.60
2022-08-09T07:38:23.199Z,68.18
2022-08-09T07:41:00.981Z,67.50
2022-08-09T07:43:41.473Z,67.49
2022-08-09T07:46:19.089Z,67.10
2022-08-09T07:48:58.922Z,66.62
2022-08-09T07:52:06.297Z,65.96
2022-08-09T07:54:14.139Z,65.25
2022-08-09T07:56:49.766Z,64.97
2022-08-09T07:59:25.068Z,64.62
2022-08-09T08:02:01.095Z,64.40
2022-08-09T08:04:32.264Z,64.23
2022-08-09T08:07:27.073Z,64.06
2022-08-09T08:09:55.096Z,63.96
2022-08-09T08:12:36.822Z,63.81
2022-08-09T08:15:07.446Z,63.75
2022-08-09T08:17:52.128Z,63.60
2022-08-09T08:20:30.356Z,63.21
2022-08-09T08:23:06.394Z,62.59
2022-08-09T08:25:46.644Z,62.12
2022-08-09T08:28:17.940Z,62.01
2022-08-09T08:30:48.728Z,61.78
2022-08-09T08:33:24.277Z,61.56
2022-08-09T08:35:58.468Z,61.42
2022-08-09T08:38:29.295Z,60.71
2022-08-09T08:40:57.132Z,59.97
2022-08-09T08:43:26.554Z,59.88
2022-08-09T08:46:09.823Z,59.39
2022-08-09T08:48:51.627Z,59.67
2022-08-09T08:51:22.548Z,58.49
2022-08-09T08:54:03.700Z,58.25
2022-08-09T08:56:35.267Z,57.42
2022-08-09T08:59:07.976Z,56.95
2022-08-09T09:01:56.962Z,56.90
2022-08-09T09:04:31.085Z,56.84
2022-08-09T09:07:02.894Z,56.79
2022-08-09T09:09:58.692Z,56.48
2022-08-09T09:12:22.895Z,55.95
2022-08-09T09:14:59.661Z,56.28
2022-08-09T09:17:49.400Z,56.80
2022-08-09T09:20:21.478Z,56.41
2022-08-09T09:22:53.305Z,56.12
2022-08-09T09:26:04.763Z,55.88
2022-08-09T09:28:39.032Z,55.65
2022-08-09T09:32:04.578Z,56.25
2022-08-09T09:34:18.042Z,56.11
2022-08-09T09:36:51.211Z,55.93
2022-08-09T09:39:42.533Z,55.05
2022-08-09T09:42:27.856Z,55.51
2022-08-09T09:45:03.231Z,55.71
2022-08-09T09:47:32.447Z,55.53
2022-08-09T09:50:14.832Z,55.07
2022-08-09T09:52:56.289Z,54.32
2022-08-09T09:55:31.405Z,54.24
2022-08-09T09:58:16.696Z,54.29
2022-08-09T10:00:54.344Z,54.74
2022-08-09T10:03:57.043Z,54.94
2022-08-09T10:06:27.886Z,54.52
2022-08-09T10:09:02.985Z,54.55
2022-08-09T10:12:01.349Z,54.68
2022-08-09T10:14:33.419Z,54.07
2022-08-09T10:17:39.931Z,54.81
2022-08-09T10:20:01.555Z,54.67
2022-08-09T10:22:33.676Z,54.24
2022-08-09T10:25:06.978Z,54.47
2022-08-09T10:27:56.598Z,53.98
2022-08-09T10:32:13.710Z,53.54
2022-08-09T10:33:29.477Z,54.01
2022-08-09T10:36:11.602Z,53.62
2022-08-09T10:38:55.861Z,53.42
2022-08-09T10:41:26.789Z,53.45
2022-08-09T10:44:01.136Z,53.20
2022-08-09T10:46:34.291Z,53.42
2022-08-09T10:49:13.251Z,53.28
2022-08-09T10:52:03.019Z,52.70
2022-08-09T10:54:31.626Z,52.86
2022-08-09T10:57:16.952Z,52.77
2022-08-09T10:59:58.114Z,52.91
2022-08-09T11:03:14.431Z,52.94
2022-08-09T11:05:30.238Z,53.24
2022-08-09T11:08:33.337Z,53.55
2022-08-09T11:11:08.904Z,53.40
2022-08-09T11:13:50.040Z,53.05
2022-08-09T11:16:39.291Z,53.22
2022-08-09T11:19:11.193Z,52.87
2022-08-09T11:22:05.393Z,53.02
2022-08-09T11:24:58.214Z,52.56
2022-08-09T11:28:04.488Z,52.32
2022-08-09T11:30:33.762Z,52.03
2022-08-09T11:33:21.056Z,52.00
2022-08-09T11:36:00.213Z,51.27
2022-08-09T11:38:41.390Z,51.37
2022-08-09T11:41:13.047Z,51.22
2022-08-09T11:43:49.298Z,51.30
2022-08-09T11:46:26.677Z,51.12
2022-08-09T11:49:05.255Z,51.29
2022-08-09T11:52:56.353Z,51.59
2022-08-09T11:55:22.206Z,51.57
2022-08-09T11:58:12.006Z,51.21
2022-08-09T12:00:52.773Z,51.58
2022-08-09T12:03:54.798Z,51.28
2022-08-09T12:06:26.605Z,50.53
2022-08-09T12:09:01.385Z,50.66
2022-08-09T12:11:28.833Z,51.03
2022-08-09T12:14:07.632Z,50.50
2022-08-09T12:16:42.869Z,50.99
2022-08-09T12:19:12.031Z,50.63
2022-08-09T12:21:48.477Z,50.34
2022-08-09T12:24:25.716Z,49.93
2022-08-09T12:29:09.804Z,49.95
2022-08-09T12:30:01.758Z,50.52
2022-08-09T12:32:42.288Z,50.25
2022-08-09T12:35:11.037Z,50.29
2022-08-09T12:37:50.196Z,49.65
2022-08-09T12:40:21.382Z,49.76
2022-08-09T12:42:51.879Z,49.81
2022-08-09T12:45:34.298Z,49.65
2022-08-09T12:48:20.258Z,50.09
2022-08-09T12:50:55.912Z,49.96
2022-08-09T12:53:38.590Z,49.20
2022-08-09T12:56:37.073Z,49.36
2022-08-09T12:59:13.968Z,49.41
2022-08-09T13:01:48.612Z,49.61
2022-08-09T13:04:37.196Z,49.66
2022-08-09T13:07:19.398Z,49.38
2022-08-09T13:09:55.219Z,49.50
2022-08-09T13:12:29.408Z,49.27
2022-08-09T13:15:23.349Z,48.42
2022-08-09T13:18:05.230Z,48.39
2022-08-09T13:21:04.101Z,48.63
2022-08-09T13:24:06.888Z,48.05
2022-08-09T13:26:49.695Z,48.28
2022-08-09T13:29:20.782Z,48.35
2022-08-09T13:32:15.195Z,48.13
2022-08-09T13:34:47.135Z,48.38
2022-08-09T13:37:24.475Z,47.63
2022-08-09T13:41:46.489Z,48.26
2022-08-09T13:42:54.131Z,48.08
2022-08-09T13:45:21.284Z,47.82
2022-08-09T13:47:59.407Z,48.15
2022-08-09T13:50:30.813Z,48.23
2022-08-09T13:52:58.418Z,47.54
2022-08-09T13:55:28.713Z,47.49
2022-08-09T13:57:58.444Z,47.43
2022-08-09T14:00:28.531Z,48.10
2022-08-09T14:03:03.190Z,47.80
2022-08-09T14:05:57.049Z,47.36
2022-08-09T14:08:28.398Z,48.12
2022-08-09T14:10:56.507Z,47.47
2022-08-09T14:14:16.418Z,47.33
2022-08-09T14:16:17.529Z,47.47
2022-08-09T14:18:49.267Z,47.17
2022-08-09T14:21:24.962Z,47.34
2022-08-09T14:23:57.445Z,46.68
2022-08-09T14:26:32.207Z,46.91
2022-08-09T14:29:25.820Z,47.28
2022-08-09T14:31:55.360Z,46.99
2022-08-09T14:34:30.711Z,46.91
2022-08-09T14:37:05.976Z,46.31
2022-08-09T14:39:39.958Z,46.39
2022-08-09T14:42:08.172Z,46.35
2022-08-09T14:44:48.742Z,46.85
2022-08-09T14:47:42.952Z,46.77
2022-08-09T14:50:09.518Z,46.47
2022-08-09T14:52:38.426Z,46.30
2022-08-09T14:55:07.021Z,46.53
2022-08-09T14:57:43.547Z,46.76
2022-08-09T15:00:12.736Z,46.52
2022-08-09T15:02:40.147Z,46.70
2022-08-09T15:05:08.385Z,46.87
2022-08-09T15:07:35.767Z,46.94
2022-08-09T15:10:10.593Z,46.29
2022-08-09T15:12:44.835Z,46.52
2022-08-09T15:15:12.987Z,47.15
2022-08-09T15:17:41.509Z,47.22
2022-08-09T15:20:11.779Z,46.72
2022-08-09T15:22:46.709Z,46.99
2022-08-09T15:25:40.887Z,46.93
2022-08-09T15:28:05.106Z,47.28
2022-08-09T15:31:01.020Z,47.22
2022-08-09T15:34:17.709Z,46.73
2022-08-09T15:36:28.490Z,46.71
2022-08-09T15:39:00.062Z,46.82
2022-08-09T15:41:30.990Z,46.81
2022-08-09T15:44:03.867Z,46.89
2022-08-09T15:46:34.091Z,46.90
2022-08-09T15:49:21.260Z,46.36
2022-08-09T15:52:03.230Z,46.71
2022-08-09T15:54:51.363Z,47.09
2022-08-09T15:57:35.147Z,47.17
2022-08-09T16:00:14.131Z,47.11
2022-08-09T16:02:53.522Z,46.45
2022-08-09T16:05:22.235Z,46.89
2022-08-09T16:07:50.877Z,46.75
2022-08-09T16:10:38.774Z,46.63
2022-08-09T16:13:20.793Z,47.41
2022-08-09T16:16:10.307Z,46.73
2022-08-09T16:18:44.730Z,47.03
2022-08-09T16:21:17.486Z,47.23
2022-08-09T16:23:54.955Z,46.63
2022-08-09T16:26:34.804Z,46.63
2022-08-09T16:29:11.120Z,47.16
2022-08-09T16:32:19.621Z,47.60
2022-08-09T16:34:44.812Z,47.50
2022-08-09T16:37:50.646Z,46.50
2022-08-09T16:40:10.219Z,46.73
2022-08-09T16:42:37.810Z,47.00
2022-08-09T16:45:07.782Z,46.53
2022-08-09T16:48:40.670Z,46.75
2022-08-09T16:50:31.615Z,46.57
2022-08-09T16:53:02.168Z,47.17
2022-08-09T16:55:31.428Z,46.83
2022-08-09T16:58:17.770Z,46.99
2022-08-09T17:00:48.310Z,46.81
2022-08-09T17:03:21.974Z,46.64
2022-08-09T17:06:07.004Z,46.91
2022-08-09T17:08:46.289Z,47.57
2022-08-09T17:11:39.967Z,47.25
2022-08-09T17:14:26.080Z,47.60
2022-08-09T17:17:01.426Z,47.45
2022-08-09T17:19:46.338Z,47.23
2022-08-09T17:22:28.667Z,47.79
2022-08-09T17:25:10.019Z,47.74
2022-08-09T17:27:39.963Z,47.90
2022-08-09T17:30:17.244Z,47.94
2022-08-09T17:32:47.266Z,48.05
2022-08-09T17:35:17.251Z,47.80
2022-08-09T17:38:11.243Z,48.04
2022-08-09T17:40:34.734Z,47.94
2022-08-09T17:43:33.154Z,48.03
2022-08-09T17:46:03.828Z,48.11
2022-08-09T17:48:32.144Z,48.66
2022-08-09T17:51:10.111Z,48.66
2022-08-09T17:53:52.323Z,48.38
2022-08-09T17:56:35.673Z,48.72
2022-08-09T17:59:12.001Z,48.82
2022-08-09T18:02:10.828Z,48.36
2022-08-09T18:04:32.044Z,49.05
2022-08-09T18:07:00.304Z,48.83
2022-08-09T18:09:41.145Z,48.66
2022-08-09T18:12:17.614Z,49.16
2022-08-09T18:14:54.501Z,49.04
2022-08-09T18:17:27.351Z,49.13
2022-08-09T18:20:54.199Z,49.02
2022-08-09T18:23:05.798Z,49.33
2022-08-09T18:25:50.711Z,49.50
2022-08-09T18:30:39.882Z,49.20
2022-08-09T18:31:11.332Z,49.62
2022-08-09T18:33:40.090Z,49.56
2022-08-09T18:36:08.746Z,50.11
2022-08-09T18:38:41.812Z,49.76
2022-08-09T18:41:08.854Z,49.91
2022-08-09T18:43:36.619Z,50.22
2022-08-09T18:46:49.687Z,50.13
2022-08-09T18:49:07.285Z,50.09
2022-08-09T18:51:38.594Z,50.25
2022-08-09T18:54:28.747Z,50.57
2022-08-09T18:57:05.275Z,50.71
2022-08-09T18:59:51.480Z,50.51
2022-08-09T19:02:32.872Z,50.78
2022-08-09T19:05:19.798Z,50.86
2022-08-09T19:08:04.894Z,50.93
2022-08-09T19:10:39.066Z,51.06
2022-08-09T19:13:22.070Z,51.11
2022-08-09T19:15:55.730Z,50.50
2022-08-09T19:18:33.525Z,51.50
2022-08-09T19:21:09.468Z,51.58
2022-08-09T19:24:37.210Z,52.04
2022-08-09T19:26:31.141Z,51.85
2022-08-09T19:29:18.177Z,51.29
2022-08-09T19:31:51.168Z,51.68
2022-08-09T19:34:23.066Z,51.69
2022-08-09T19:36:56.152Z,51.91
2022-08-09T20:02:08.065Z,52.31
2022-08-09T20:04:47.563Z,52.49
2022-08-09T20:07:22.426Z,52.36
2022-08-09T20:09:49.703Z,52.84
2022-08-09T20:12:31.636Z,52.92
2022-08-09T20:16:31.831Z,52.98
2022-08-09T20:17:54.801Z,52.90
2022-08-09T20:20:22.350Z,53.14
2022-08-09T20:22:55.992Z,52.82
2022-08-09T20:25:23.942Z,52.80
2022-08-09T20:27:52.266Z,52.80
2022-08-09T20:30:23.538Z,53.29
2022-08-09T20:32:52.184Z,53.24
2022-08-09T20:35:23.078Z,53.18
2022-08-09T20:38:23.938Z,53.14
2022-08-09T20:40:37.325Z,53.34
2022-08-09T20:43:18.123Z,53.18
2022-08-09T20:46:00.531Z,53.47
2022-08-09T20:48:31.007Z,53.76
2022-08-09T20:50:59.924Z,53.85
2022-08-09T20:53:36.846Z,53.57
2022-08-09T20:56:20.231Z,53.72
2022-08-09T20:58:49.698Z,53.43
2022-08-09T21:01:33.487Z,53.69
2022-08-09T21:04:08.216Z,53.82
2022-08-09T21:06:51.949Z,53.68
2022-08-09T21:09:32.758Z,54.07
2022-08-09T21:14:38.229Z,54.30
2022-08-09T21:18:11.682Z,54.61
2022-08-09T21:20:19.008Z,54.14
2022-08-09T21:22:46.893Z,54.14
2022-08-09T21:25:38.506Z,54.69
2022-08-09T21:28:07.584Z,54.91
2022-08-09T21:30:40.526Z,54.87
2022-08-09T21:33:08.315Z,54.71
2022-08-09T21:35:40.814Z,54.77
2022-08-09T21:38:21.057Z,55.02
2022-08-09T21:40:58.841Z,55.00
2022-08-09T21:43:56.149Z,55.00
2022-08-09T21:46:13.816Z,54.97
2022-08-09T21:48:42.504Z,54.92
2022-08-09T21:51:30.138Z,55.12
2022-08-09T21:54:03.339Z,55.46
2022-08-09T21:56:42.988Z,55.11
2022-08-09T21:59:17.302Z,55.77
2022-08-09T22:02:00.542Z,55.51
2022-08-09T22:04:56.761Z,55.66
2022-08-09T22:07:35.281Z,55.97
2022-08-09T22:10:09.487Z,55.64
2022-08-09T22:12:38.051Z,56.07
2022-08-09T22:15:06.864Z,55.80
2022-08-09T22:17:46.103Z,55.89
2022-08-09T22:20:21.526Z,56.29
2022-08-09T22:22:54.627Z,56.30
2022-08-09T22:26:06.901Z,56.47
2022-08-09T22:28:08.710Z,56.43
2022-08-09T22:30:36.719Z,56.25
2022-08-09T22:33:09.300Z,56.61
2022-08-09T22:36:01.309Z,56.44
2022-08-09T22:38:24.352Z,56.51
2022-08-09T22:40:57.340Z,56.59
2022-08-09T22:44:00.524Z,56.96
2022-08-09T22:48:12.674Z,57.46
2022-08-09T22:49:10.335Z,57.17
2022-08-09T22:51:39.424Z,57.56
2022-08-09T22:54:10.880Z,57.51
2022-08-09T22:56:41.454Z,57.50
2022-08-09T22:59:57.795Z,57.66
2022-08-09T23:01:56.113Z,57.69
2022-08-09T23:04:25.554Z,58.10
2022-08-09T23:07:11.567Z,58.17
2022-08-09T23:09:41.314Z,57.75
2022-08-09T23:12:09.620Z,58.15
2022-08-09T23:14:41.962Z,57.99
2022-08-09T23:17:10.387Z,58.25
2022-08-09T23:20:00.965Z,59.01
2022-08-09T23:22:24.924Z,58.82
2022-08-09T23:24:51.873Z,58.75
2022-08-09T23:27:18.865Z,58.97
2022-08-09T23:29:45.879Z,59.40
2022-08-09T23:32:12.828Z,59.56
2022-08-09T23:34:39.893Z,59.26
2022-08-09T23:37:07.199Z,59.60
2022-08-09T23:39:34.228Z,60.01
2022-08-09T23:42:01.655Z,60.17
2022-08-09T23:44:29.616Z,60.47
2022-08-09T23:46:57.388Z,60.26
2022-08-09T23:49:25.793Z,60.08
2022-08-09T23:51:54.384Z,60.46
2022-08-09T23:54:26.640Z,60.18
2022-08-09T23:56:55.884Z,60.53
2022-08-09T23:59:24.631Z,60.71
